Time;durP1;ratioP1;P1;durP2;ratioP2;P2;SDS_P1;SDS_P2;PMS_P1;PMS_P2;Temp;Humidity;BMP_temperature;BMP_pressure;BME280_temperature;BME280_humidity;BME280_pressure;Samples;Min_cycle;Max_cycle;Signal;HPM_P1;HPM_P2
2022/01/28 00:02:42;;;;;;;6.43;2.43;;;15.20;60.90;;;;;;5004560;28;20444;-80
2022/01/28 00:05:16;;;;;;;7.93;2.50;;;15.20;60.80;;;;;;5016475;28;20472;-80
2022/01/28 00:07:48;;;;;;;7.40;2.80;;;15.20;60.90;;;;;;5016287;28;20444;-80
2022/01/28 00:10:32;;;;;;;7.80;2.37;;;15.20;60.90;;;;;;5018034;28;20453;-80
2022/01/28 00:13:24;;;;;;;7.87;2.30;;;15.20;60.80;;;;;;5013706;28;20477;-81
2022/01/28 00:18:57;;;;;;;6.10;2.17;;;15.20;60.80;;;;;;5014891;28;20456;-81
2022/01/28 00:38:14;;;;;;;7.03;2.60;;;15.10;60.90;;;;;;5007871;28;20475;-83
2022/01/28 00:40:42;;;;;;;7.33;2.10;;;15.10;60.90;;;;;;5018900;28;20456;-84
2022/01/28 00:43:10;;;;;;;5.77;2.33;;;15.10;60.80;;;;;;5017816;28;20475;-83
2022/01/28 00:45:39;;;;;;;5.50;2.50;;;15.00;60.90;;;;;;5019541;28;20456;-84
2022/01/28 00:48:07;;;;;;;8.20;2.43;;;15.00;60.80;;;;;;5011077;28;20449;-81
2022/01/28 00:50:35;;;;;;;4.63;2.07;;;15.10;60.90;;;;;;4998568;28;20874;-82
2022/01/28 00:53:03;;;;;;;6.50;2.50;;;15.10;60.90;;;;;;4997657;28;20492;-82
2022/01/28 00:55:30;;;;;;;5.20;2.20;;;15.10;60.90;;;;;;5010471;28;20472;-82
2022/01/28 00:57:58;;;;;;;7.43;3.03;;;15.10;60.90;;;;;;5017131;28;20462;-82
2022/01/28 01:00:26;;;;;;;7.60;2.37;;;15.10;60.90;;;;;;5002805;28;20483;-82
2022/01/28 01:02:56;;;;;;;4.20;2.00;;;15.10;60.90;;;;;;5005331;28;20475;-82
2022/01/28 01:05:24;;;;;;;7.83;1.93;;;15.20;60.90;;;;;;5008565;28;20486;-82
2022/01/28 01:07:52;;;;;;;7.60;2.57;;;15.20;60.80;;;;;;5005455;28;20453;-83
2022/01/28 01:10:21;;;;;;;6.20;2.70;;;15.20;60.80;;;;;;4997553;28;20465;-83
2022/01/28 01:12:54;;;;;;;9.73;2.80;;;15.20;60.70;;;;;;5011266;28;20441;-83
2022/01/28 01:15:30;;;;;;;5.67;2.13;;;15.20;60.90;;;;;;5016413;28;20530;-83
2022/01/28 01:18:06;;;;;;;6.00;2.40;;;15.20;60.90;;;;;;5009795;28;20445;-83
2022/01/28 01:20:51;;;;;;;4.80;2.57;;;15.20;61.10;;;;;;5015884;28;20519;-84
2022/01/28 01:23:24;;;;;;;6.63;2.10;;;15.20;61.00;;;;;;5005156;28;20476;-84
2022/01/28 01:25:56;;;;;;;5.63;2.50;;;15.20;61.00;;;;;;5004965;28;20511;-83
2022/01/28 01:28:29;;;;;;;5.30;2.50;;;15.20;61.20;;;;;;5004561;28;20449;-82
2022/01/28 01:30:58;;;;;;;4.53;2.37;;;15.20;61.10;;;;;;5005405;28;20471;-81
2022/01/28 01:33:31;;;;;;;3.87;2.20;;;15.20;60.90;;;;;;5009496;28;20476;-81
2022/01/28 01:35:59;;;;;;;4.13;2.10;;;15.20;60.90;;;;;;5003851;28;20468;-82
2022/01/28 01:38:31;;;;;;;10.80;2.87;;;15.20;61.00;;;;;;5004842;28;20445;-81
2022/01/28 01:41:02;;;;;;;6.80;2.40;;;15.20;60.90;;;;;;5006050;28;20468;-81
2022/01/28 01:43:43;;;;;;;8.67;2.80;;;15.20;61.00;;;;;;5007435;28;20492;-82
2022/01/28 01:46:21;;;;;;;8.33;2.87;;;15.20;60.90;;;;;;5007275;28;20429;-82
2022/01/28 01:54:21;;;;;;;8.03;2.47;;;15.20;60.90;;;;;;5006029;28;20499;-82
2022/01/28 01:56:51;;;;;;;6.27;2.50;;;15.20;60.90;;;;;;4999693;28;20433;-81
2022/01/28 01:59:19;;;;;;;5.70;2.43;;;15.20;61.00;;;;;;4997994;28;20465;-81
2022/01/28 02:01:47;;;;;;;5.07;2.40;;;15.20;60.90;;;;;;4996993;28;20477;-81
2022/01/28 02:04:17;;;;;;;8.97;2.43;;;15.20;60.80;;;;;;5000195;28;20503;-81
2022/01/28 02:06:44;;;;;;;8.57;2.70;;;15.20;60.90;;;;;;4999864;28;20429;-82
2022/01/28 02:09:12;;;;;;;6.07;2.50;;;15.20;60.90;;;;;;5019976;28;20543;-82
2022/01/28 02:11:40;;;;;;;5.43;2.50;;;15.20;61.00;;;;;;5003911;28;20476;-83
2022/01/28 02:14:08;;;;;;;6.00;2.30;;;15.20;61.10;;;;;;5000211;28;20571;-82
2022/01/28 02:16:36;;;;;;;8.30;2.80;;;15.20;61.00;;;;;;5000194;28;20448;-82
2022/01/28 02:19:04;;;;;;;12.20;2.57;;;15.20;60.90;;;;;;4999981;28;20441;-82
2022/01/28 02:21:39;;;;;;;5.23;2.30;;;15.30;61.10;;;;;;4999578;28;20551;-82
2022/01/28 02:24:08;;;;;;;6.50;2.83;;;15.20;61.00;;;;;;5010271;28;20515;-83
2022/01/28 02:26:37;;;;;;;10.73;3.43;;;15.30;61.20;;;;;;5018471;28;20483;-83
2022/01/28 02:29:10;;;;;;;7.67;2.60;;;15.30;61.10;;;;;;5019303;28;20491;-82
2022/01/28 02:31:39;;;;;;;7.10;2.60;;;15.30;61.20;;;;;;5019505;28;20464;-82
2022/01/28 02:34:10;;;;;;;8.63;2.70;;;15.30;61.00;;;;;;5012249;28;20551;-82
2022/01/28 02:36:40;;;;;;;5.03;2.40;;;15.30;61.30;;;;;;5018718;28;20460;-82
2022/01/28 02:39:10;;;;;;;7.23;2.50;;;15.30;61.10;;;;;;5010852;28;20432;-82
2022/01/28 02:41:42;;;;;;;7.23;2.37;;;15.30;61.20;;;;;;5019856;28;20529;-82
2022/01/28 02:44:18;;;;;;;6.67;2.57;;;15.30;61.00;;;;;;5019669;28;20473;-82
2022/01/28 02:46:58;;;;;;;7.10;2.70;;;15.30;61.20;;;;;;5019309;28;20468;-82
2022/01/28 02:49:29;;;;;;;6.60;3.00;;;15.30;61.10;;;;;;5019030;28;20486;-83
2022/01/28 02:51:59;;;;;;;3.70;2.30;;;15.30;61.30;;;;;;5019175;28;20452;-83
2022/01/28 02:54:27;;;;;;;5.30;2.27;;;15.30;61.10;;;;;;5018690;28;20500;-83
2022/01/28 02:57:00;;;;;;;4.90;2.20;;;15.30;61.10;;;;;;5018568;28;20428;-81
2022/01/28 02:59:28;;;;;;;5.67;2.40;;;15.30;61.40;;;;;;5020873;28;20459;-79
2022/01/28 03:01:56;;;;;;;5.80;2.60;;;15.30;61.30;;;;;;5009096;28;20933;-81
2022/01/28 03:04:52;;;;;;;8.60;2.47;;;15.30;61.20;;;;;;4999371;28;20472;-81
2022/01/28 03:07:24;;;;;;;7.83;2.17;;;15.30;61.30;;;;;;4999620;28;20469;-80
2022/01/28 03:10:24;;;;;;;6.47;2.47;;;15.30;61.30;;;;;;5013252;28;21009;-81
2022/01/28 03:13:01;;;;;;;5.73;2.00;;;15.30;61.20;;;;;;5006679;28;20425;-81
2022/01/28 03:15:31;;;;;;;7.00;2.60;;;15.30;61.20;;;;;;5004139;28;20979;-81
2022/01/28 03:18:10;;;;;;;9.50;2.37;;;15.30;61.60;;;;;;5018175;28;20444;-81
2022/01/28 03:20:41;;;;;;;9.70;2.63;;;15.30;61.40;;;;;;5017957;28;20923;-81
2022/01/28 03:23:11;;;;;;;4.30;2.13;;;15.30;61.40;;;;;;5006335;28;20484;-82
2022/01/28 03:25:43;;;;;;;6.67;2.70;;;15.30;61.20;;;;;;5016547;28;20951;-80
2022/01/28 03:28:11;;;;;;;5.57;2.33;;;15.30;61.20;;;;;;5009701;28;20436;-81
2022/01/28 03:30:39;;;;;;;6.97;2.37;;;15.30;61.20;;;;;;5006112;28;20510;-80
2022/01/28 03:33:07;;;;;;;7.17;2.57;;;15.30;61.30;;;;;;5009753;28;20487;-81
2022/01/28 03:35:36;;;;;;;10.40;2.90;;;15.40;61.20;;;;;;5011784;28;20493;-81
2022/01/28 03:38:07;;;;;;;4.23;2.10;;;15.30;61.20;;;;;;4998435;28;20461;-81
2022/01/28 03:40:36;;;;;;;10.33;2.83;;;15.30;61.10;;;;;;4998540;28;20465;-81
2022/01/28 03:43:05;;;;;;;4.73;2.60;;;15.40;61.40;;;;;;4998142;28;20469;-81
2022/01/28 03:45:33;;;;;;;7.63;2.47;;;15.40;61.20;;;;;;4997718;28;20477;-81
2022/01/28 03:48:01;;;;;;;6.50;2.43;;;15.30;61.10;;;;;;4998434;28;20525;-82
2022/01/28 03:50:32;;;;;;;8.70;2.90;;;15.30;61.10;;;;;;5007801;28;20454;-82
2022/01/28 03:53:00;;;;;;;5.73;2.43;;;15.30;61.20;;;;;;5007919;28;20461;-82
2022/01/28 03:55:28;;;;;;;10.10;2.73;;;15.30;61.10;;;;;;4997849;28;20516;-80
2022/01/28 03:57:58;;;;;;;6.17;2.70;;;15.40;61.40;;;;;;4998260;28;20442;-80
2022/01/28 04:00:28;;;;;;;4.83;2.70;;;15.30;61.00;;;;;;4998130;28;20507;-81
2022/01/28 04:03:05;;;;;;;10.17;2.63;;;15.30;61.10;;;;;;4998060;28;20479;-80
2022/01/28 04:13:59;;;;;;;6.00;2.43;;;15.40;61.00;;;;;;4970365;28;20470;-82
2022/01/28 04:17:18;;;;;;;6.13;2.33;;;15.40;60.70;;;;;;5016972;28;20524;-82
2022/01/28 04:19:19;;;;;;;7.13;2.50;;;15.40;60.90;;;;;;5016948;28;20526;-82
2022/01/28 04:21:48;;;;;;;8.07;2.57;;;15.30;60.80;;;;;;5017190;28;20994;-82
2022/01/28 04:24:16;;;;;;;6.53;2.30;;;15.30;60.80;;;;;;5016502;28;20484;-81
2022/01/28 04:26:44;;;;;;;8.23;2.60;;;15.30;60.80;;;;;;5000412;28;20479;-81
2022/01/28 04:29:14;;;;;;;5.70;2.20;;;15.30;60.80;;;;;;4998234;28;20469;-81
2022/01/28 04:31:44;;;;;;;8.73;2.60;;;15.30;60.90;;;;;;4997300;28;20496;-81
2022/01/28 04:34:13;;;;;;;5.03;2.40;;;15.20;60.90;;;;;;4997307;28;20574;-81
2022/01/28 04:36:49;;;;;;;6.80;2.17;;;15.30;61.10;;;;;;4997348;28;20480;-81
2022/01/28 04:39:27;;;;;;;8.80;2.60;;;15.20;60.90;;;;;;4997338;28;20456;-81
2022/01/28 04:42:03;;;;;;;7.23;2.73;;;15.20;61.00;;;;;;5011627;28;20456;-81
2022/01/28 04:44:40;;;;;;;5.93;2.50;;;15.20;61.00;;;;;;5017047;28;20535;-81
2022/01/28 04:47:15;;;;;;;8.07;2.67;;;15.20;61.10;;;;;;5016804;28;20471;-81
2022/01/28 04:49:54;;;;;;;9.50;2.90;;;15.20;61.10;;;;;;5015824;28;20440;-81
2022/01/28 04:52:56;;;;;;;5.53;2.63;;;15.20;61.30;;;;;;5014617;28;20554;-82
2022/01/28 04:55:43;;;;;;;8.07;2.87;;;15.20;61.10;;;;;;5012884;28;20472;-82
2022/01/28 04:58:23;;;;;;;6.70;2.80;;;15.30;61.80;;;;;;5016085;28;20539;-82
2022/01/28 05:01:05;;;;;;;6.53;2.63;;;15.30;61.20;;;;;;5010688;28;20479;-82
2022/01/28 05:03:53;;;;;;;9.33;2.40;;;15.30;60.90;;;;;;5012348;28;20496;-82
2022/01/28 05:06:47;;;;;;;7.10;2.73;;;15.30;61.40;;;;;;4998601;28;20459;-82
2022/01/28 05:09:47;;;;;;;8.77;2.23;;;15.20;60.70;;;;;;4993098;28;20491;-80
2022/01/28 05:15:33;;;;;;;6.47;2.20;;;15.30;60.90;;;;;;5004605;28;20570;-81
2022/01/28 05:26:26;;;;;;;8.27;2.70;;;15.20;60.90;;;;;;5014505;28;20472;-81
2022/01/28 05:28:54;;;;;;;6.33;2.50;;;15.20;60.70;;;;;;5016586;28;20471;-81
2022/01/28 05:31:22;;;;;;;3.97;2.60;;;15.20;60.70;;;;;;5020498;28;20455;-82
2022/01/28 05:33:51;;;;;;;7.70;2.33;;;15.20;60.70;;;;;;5014295;28;20510;-82
2022/01/28 05:36:19;;;;;;;6.20;2.30;;;15.20;60.70;;;;;;5014505;28;20503;-82
2022/01/28 05:38:47;;;;;;;10.00;2.40;;;15.20;60.70;;;;;;5017919;28;20510;-82
2022/01/28 05:41:15;;;;;;;4.40;2.60;;;15.30;60.80;;;;;;5018632;28;20436;-82
2022/01/28 05:43:43;;;;;;;5.33;2.40;;;15.30;60.70;;;;;;5017581;28;20522;-82
2022/01/28 05:46:11;;;;;;;5.50;2.53;;;15.30;60.80;;;;;;5017634;28;20487;-81
2022/01/28 05:48:39;;;;;;;5.37;2.47;;;15.30;60.60;;;;;;5018604;28;20524;-81
2022/01/28 05:51:09;;;;;;;10.13;3.03;;;15.30;60.60;;;;;;5020923;28;20484;-82
2022/01/28 05:53:36;;;;;;;10.33;3.07;;;15.30;60.60;;;;;;5003435;28;20468;-82
2022/01/28 05:56:05;;;;;;;5.87;2.47;;;15.30;60.40;;;;;;4998955;28;20586;-82
2022/01/28 05:58:33;;;;;;;7.13;2.83;;;15.30;60.30;;;;;;5001102;28;20453;-82
2022/01/28 06:01:01;;;;;;;7.43;2.67;;;15.30;61.20;;;;;;5000392;28;20426;-82
2022/01/28 06:03:30;;;;;;;5.63;2.57;;;15.30;60.30;;;;;;5000827;28;20453;-81
2022/01/28 06:05:58;;;;;;;11.47;2.93;;;15.30;60.30;;;;;;5000751;28;20445;-81
2022/01/28 06:08:27;;;;;;;5.17;2.70;;;15.40;60.30;;;;;;5013489;28;20503;-81
2022/01/28 06:10:55;;;;;;;4.70;2.40;;;15.30;60.40;;;;;;5020008;28;20448;-82
2022/01/28 06:13:23;;;;;;;6.90;2.20;;;15.30;60.40;;;;;;5019796;28;20472;-82
2022/01/28 06:15:55;;;;;;;7.40;2.60;;;15.30;60.30;;;;;;5019493;28;20478;-81
2022/01/28 06:18:23;;;;;;;9.83;2.73;;;15.30;60.30;;;;;;5020312;28;20516;-81
2022/01/28 06:20:52;;;;;;;8.37;2.80;;;15.30;60.50;;;;;;5020167;28;20451;-81
2022/01/28 06:23:20;;;;;;;9.47;3.00;;;15.30;60.30;;;;;;5019344;28;20974;-82
2022/01/28 06:25:50;;;;;;;7.17;2.37;;;15.30;60.30;;;;;;5017500;28;20582;-81
2022/01/28 06:28:18;;;;;;;5.10;2.50;;;15.30;60.20;;;;;;5009904;28;20447;-82
2022/01/28 06:30:46;;;;;;;7.97;2.80;;;15.40;60.30;;;;;;5016863;28;20487;-82
2022/01/28 06:33:15;;;;;;;6.30;2.87;;;15.40;60.20;;;;;;5016892;28;20460;-82
2022/01/28 06:35:44;;;;;;;6.97;2.50;;;15.40;60.30;;;;;;5016616;28;20499;-81
2022/01/28 06:38:12;;;;;;;9.00;2.50;;;15.40;60.20;;;;;;5016456;28;20461;-81
2022/01/28 06:40:40;;;;;;;6.00;2.83;;;15.40;60.20;;;;;;5016499;28;20515;-81
2022/01/28 06:43:10;;;;;;;9.53;3.17;;;15.40;60.20;;;;;;5016041;28;20448;-81
2022/01/28 06:45:40;;;;;;;7.00;2.63;;;15.40;60.40;;;;;;5015370;28;20542;-80
2022/01/28 06:48:07;;;;;;;10.93;2.60;;;15.40;60.30;;;;;;4996994;28;20524;-81
2022/01/28 06:50:36;;;;;;;6.57;2.80;;;15.40;60.10;;;;;;4996342;28;20584;-80
2022/01/28 06:53:04;;;;;;;6.73;2.60;;;15.40;60.20;;;;;;4996721;28;20484;-81
2022/01/28 06:55:33;;;;;;;9.73;2.80;;;15.40;60.10;;;;;;4996741;28;20502;-80
2022/01/28 06:58:01;;;;;;;9.83;3.00;;;15.30;60.00;;;;;;4996793;28;20472;-81
2022/01/28 07:00:35;;;;;;;6.90;2.50;;;15.30;60.20;;;;;;4996804;28;20441;-81
2022/01/28 07:03:04;;;;;;;8.43;2.30;;;15.40;60.40;;;;;;5018522;28;20539;-82
2022/01/28 07:05:32;;;;;;;12.67;3.33;;;15.30;59.90;;;;;;5000587;28;20444;-81
2022/01/28 07:08:00;;;;;;;6.97;3.00;;;15.40;60.30;;;;;;4995080;28;20533;-81
2022/01/28 07:10:29;;;;;;;6.93;2.50;;;15.40;60.30;;;;;;4994898;28;20473;-81
2022/01/28 07:12:56;;;;;;;7.67;3.17;;;15.50;60.20;;;;;;4994921;28;20469;-81
2022/01/28 07:15:25;;;;;;;6.53;2.50;;;15.50;60.20;;;;;;4995044;28;20476;-81
2022/01/28 07:17:54;;;;;;;5.83;2.17;;;15.50;60.10;;;;;;5013538;28;20487;-82
2022/01/28 07:20:25;;;;;;;9.23;3.07;;;15.40;60.10;;;;;;5003900;28;20472;-82
2022/01/28 07:22:53;;;;;;;7.30;2.93;;;15.40;59.90;;;;;;4997607;28;20473;-82
2022/01/28 07:25:21;;;;;;;8.43;3.07;;;15.50;60.30;;;;;;4997433;28;20477;-80
2022/01/28 07:27:49;;;;;;;11.73;2.97;;;15.50;60.30;;;;;;4997772;28;20457;-81
2022/01/28 07:30:17;;;;;;;12.47;3.10;;;15.40;60.00;;;;;;4997916;28;20445;-81
2022/01/28 07:32:48;;;;;;;9.27;3.10;;;15.50;59.90;;;;;;4996803;28;20433;-81
2022/01/28 07:35:18;;;;;;;8.90;2.57;;;15.40;59.90;;;;;;5018973;28;20488;-81
2022/01/28 07:37:46;;;;;;;9.37;3.10;;;15.40;60.20;;;;;;5000836;28;20505;-82
2022/01/28 07:40:15;;;;;;;6.77;2.87;;;15.40;60.20;;;;;;4997016;28;20491;-83
2022/01/28 07:42:43;;;;;;;8.10;2.63;;;15.50;60.00;;;;;;4996525;28;20932;-82
2022/01/28 07:45:13;;;;;;;6.57;2.70;;;15.50;60.30;;;;;;4996903;28;20489;-82
2022/01/28 07:47:42;;;;;;;10.10;3.03;;;15.50;60.10;;;;;;4996450;28;20452;-81
2022/01/28 07:50:10;;;;;;;8.90;2.97;;;15.50;60.20;;;;;;4996084;28;20496;-82
2022/01/28 07:52:40;;;;;;;7.63;2.70;;;15.60;60.40;;;;;;5011818;28;20472;-86
2022/01/28 07:55:10;;;;;;;8.67;3.10;;;15.60;59.90;;;;;;5016513;28;20487;-87
2022/01/28 07:57:38;;;;;;;5.83;2.70;;;15.50;60.00;;;;;;5016371;28;20584;-84
2022/01/28 08:00:07;;;;;;;3.90;2.47;;;15.50;60.00;;;;;;5015799;28;20662;-86
2022/01/28 08:02:36;;;;;;;7.03;2.83;;;15.50;59.90;;;;;;5015920;28;20452;-84
2022/01/28 08:05:05;;;;;;;9.03;3.23;;;15.60;60.00;;;;;;5017094;28;20522;-85
2022/01/28 08:07:35;;;;;;;8.17;3.63;;;15.60;60.00;;;;;;5018833;28;20526;-85
2022/01/28 08:10:05;;;;;;;11.07;3.30;;;15.60;59.90;;;;;;5018801;28;20452;-85
2022/01/28 08:12:33;;;;;;;10.60;3.17;;;15.70;59.90;;;;;;5018019;28;20931;-85
2022/01/28 08:15:01;;;;;;;4.30;2.10;;;15.60;59.80;;;;;;5017696;28;20456;-84
2022/01/28 08:17:32;;;;;;;4.33;2.67;;;15.70;60.00;;;;;;5017542;28;20472;-86
2022/01/28 08:20:01;;;;;;;7.60;3.20;;;15.70;60.00;;;;;;5017474;28;20464;-85
2022/01/28 08:22:30;;;;;;;9.97;3.20;;;15.70;60.00;;;;;;5017446;28;20456;-85
2022/01/28 08:24:58;;;;;;;8.43;3.23;;;15.70;60.00;;;;;;5009931;28;20468;-85
2022/01/28 08:27:28;;;;;;;11.20;3.53;;;15.80;59.90;;;;;;5017624;28;20488;-84
2022/01/28 08:29:55;;;;;;;5.70;2.67;;;15.80;60.00;;;;;;5017829;28;20440;-85
2022/01/28 08:32:24;;;;;;;13.50;3.30;;;15.80;60.00;;;;;;5017578;28;20447;-86
2022/01/28 08:34:52;;;;;;;8.43;2.97;;;15.90;60.00;;;;;;5017218;28;20491;-84
2022/01/28 08:37:19;;;;;;;7.60;3.13;;;15.90;60.00;;;;;;5018148;28;20522;-85
2022/01/28 08:39:49;;;;;;;10.37;3.53;;;16.00;60.00;;;;;;5019164;28;20428;-84
2022/01/28 08:42:16;;;;;;;4.77;2.43;;;16.10;59.90;;;;;;5019983;28;20456;-85
2022/01/28 08:44:46;;;;;;;6.00;2.67;;;16.20;60.20;;;;;;5002341;28;20508;-85
2022/01/28 08:47:14;;;;;;;9.90;3.43;;;16.30;59.80;;;;;;4998576;28;20452;-84
2022/01/28 08:49:43;;;;;;;7.03;3.10;;;16.40;59.60;;;;;;4998768;28;20492;-85
2022/01/28 08:52:11;;;;;;;5.20;2.83;;;16.50;59.60;;;;;;4997959;28;20437;-85
2022/01/28 08:54:39;;;;;;;6.30;2.93;;;16.50;59.20;;;;;;4998396;28;20489;-83
2022/01/28 08:57:07;;;;;;;5.80;2.90;;;16.60;59.10;;;;;;4999985;28;20500;-84
2022/01/28 08:59:39;;;;;;;8.80;2.90;;;16.60;58.90;;;;;;5012294;28;20786;-85
2022/01/28 09:02:08;;;;;;;6.20;2.77;;;16.80;59.00;;;;;;5017319;28;20500;-84
2022/01/28 09:04:36;;;;;;;5.17;2.67;;;16.80;58.60;;;;;;5017925;28;20463;-85
2022/01/28 09:07:04;;;;;;;7.73;3.33;;;16.80;58.80;;;;;;5018579;28;20429;-84
2022/01/28 09:09:33;;;;;;;12.77;3.67;;;16.70;58.60;;;;;;5018207;28;20448;-86
2022/01/28 09:12:19;;;;;;;8.20;3.50;;;16.80;58.70;;;;;;5020432;28;20421;-85
2022/01/28 09:14:47;;;;;;;6.30;2.97;;;16.70;58.70;;;;;;5022573;28;20476;-85
2022/01/28 09:17:19;;;;;;;8.90;3.17;;;16.70;58.80;;;;;;5021971;28;20494;-85
2022/01/28 09:19:48;;;;;;;6.90;3.40;;;16.70;58.90;;;;;;5021774;28;20437;-86
2022/01/28 09:22:16;;;;;;;7.47;3.30;;;16.70;59.10;;;;;;5021886;28;20491;-86
2022/01/28 09:24:44;;;;;;;6.30;2.60;;;16.60;58.90;;;;;;5021234;28;20551;-87
2022/01/28 09:27:12;;;;;;;11.67;3.80;;;16.60;59.00;;;;;;5022560;28;20483;-87
2022/01/28 09:29:41;;;;;;;7.20;3.70;;;16.60;59.10;;;;;;5023887;28;20464;-85
2022/01/28 09:32:09;;;;;;;11.10;3.57;;;16.60;59.10;;;;;;5027350;28;20463;-86
2022/01/28 09:34:38;;;;;;;7.40;3.10;;;16.70;59.20;;;;;;5021678;28;20495;-87
2022/01/28 09:37:06;;;;;;;6.63;3.23;;;16.70;59.20;;;;;;5021562;28;20436;-85
2022/01/28 09:39:36;;;;;;;11.60;3.70;;;16.70;59.20;;;;;;5021498;28;20460;-86
2022/01/28 09:42:11;;;;;;;5.17;3.30;;;16.70;59.20;;;;;;5021893;28;20413;-86
2022/01/28 09:44:39;;;;;;;10.00;3.80;;;16.80;59.10;;;;;;5021741;28;20490;-85
2022/01/28 09:47:07;;;;;;;5.60;3.17;;;16.90;59.10;;;;;;5022061;28;20452;-86
2022/01/28 09:49:37;;;;;;;8.50;3.53;;;16.80;58.90;;;;;;5021698;28;20436;-85
2022/01/28 09:52:07;;;;;;;10.40;4.50;;;16.90;59.00;;;;;;5021043;28;20447;-85
2022/01/28 09:54:35;;;;;;;6.60;3.20;;;17.00;59.10;;;;;;5020805;28;20484;-86
2022/01/28 09:57:04;;;;;;;9.30;3.57;;;17.00;59.00;;;;;;5021169;28;20441;-87
2022/01/28 09:59:35;;;;;;;6.97;3.40;;;17.00;59.00;;;;;;5021558;28;20476;-86
2022/01/28 10:02:03;;;;;;;9.37;3.90;;;17.10;58.70;;;;;;5024149;28;20537;-86
2022/01/28 10:04:31;;;;;;;8.40;3.87;;;17.20;58.60;;;;;;5022357;28;20499;-85
2022/01/28 10:06:59;;;;;;;8.90;3.60;;;17.30;58.60;;;;;;5020090;28;20482;-85
2022/01/28 10:09:29;;;;;;;9.90;3.80;;;17.30;58.40;;;;;;5019927;28;20491;-87
2022/01/28 10:11:57;;;;;;;11.47;3.97;;;17.30;58.40;;;;;;5020443;28;20487;-86
2022/01/28 10:14:28;;;;;;;10.87;3.73;;;17.40;58.60;;;;;;5019833;28;20460;-84
2022/01/28 10:16:57;;;;;;;6.00;3.17;;;17.40;59.00;;;;;;5021012;28;20444;-84
2022/01/28 10:19:26;;;;;;;7.70;3.63;;;17.50;58.60;;;;;;5020659;28;20472;-85
2022/01/28 10:21:54;;;;;;;8.43;3.90;;;17.50;58.50;;;;;;5020711;28;20436;-86
2022/01/28 10:24:23;;;;;;;6.10;3.30;;;17.50;58.50;;;;;;5019852;28;20461;-85
2022/01/28 10:26:54;;;;;;;8.40;3.40;;;17.60;58.30;;;;;;5017736;28;20452;-85
2022/01/28 10:29:24;;;;;;;6.47;3.33;;;17.60;58.50;;;;;;5021018;28;20511;-85
2022/01/28 10:31:54;;;;;;;6.00;2.97;;;17.60;58.20;;;;;;5013146;28;20432;-85
2022/01/28 10:34:27;;;;;;;5.80;3.07;;;17.60;58.20;;;;;;5004499;28;20454;-85
2022/01/28 10:37:09;;;;;;;9.67;3.20;;;17.70;58.50;;;;;;5001205;28;20464;-85
2022/01/28 10:39:48;;;;;;;8.00;3.43;;;17.70;58.20;;;;;;5018687;28;20515;-85
2022/01/28 10:42:34;;;;;;;8.73;3.70;;;17.70;58.20;;;;;;5019927;28;20440;-84
2022/01/28 10:45:04;;;;;;;7.80;3.30;;;17.80;58.10;;;;;;5019737;28;20448;-85
2022/01/28 10:47:34;;;;;;;7.97;3.70;;;17.80;58.20;;;;;;5020054;28;20518;-81
2022/01/28 10:50:19;;;;;;;6.27;3.50;;;17.90;58.30;;;;;;5017203;28;20472;-82
2022/01/28 10:52:48;;;;;;;9.73;3.63;;;18.00;57.90;;;;;;5013235;28;20437;-79
2022/01/28 10:55:17;;;;;;;8.40;3.50;;;18.00;58.10;;;;;;5024566;28;20472;-82
2022/01/28 10:57:57;;;;;;;6.27;3.30;;;18.00;57.70;;;;;;5018882;28;20453;-82
2022/01/28 11:00:27;;;;;;;8.03;3.60;;;18.00;57.60;;;;;;5009524;28;20452;-81
2022/01/28 11:02:55;;;;;;;7.00;3.80;;;18.00;58.10;;;;;;5015409;28;20424;-81
2022/01/28 11:05:23;;;;;;;6.40;3.57;;;17.90;58.30;;;;;;5017669;28;20511;-81
2022/01/28 11:07:51;;;;;;;8.70;3.60;;;18.00;58.40;;;;;;5017644;28;20436;-81
2022/01/28 11:10:20;;;;;;;9.10;3.70;;;17.90;58.40;;;;;;5014917;28;21127;-81
2022/01/28 11:12:47;;;;;;;8.83;3.90;;;18.00;58.40;;;;;;5004425;28;20459;-80
2022/01/28 11:15:17;;;;;;;9.70;4.07;;;18.10;58.40;;;;;;5017693;28;20488;-80
2022/01/28 11:17:45;;;;;;;6.07;3.30;;;18.10;58.40;;;;;;5017154;28;20452;-80
2022/01/28 11:20:13;;;;;;;6.57;4.00;;;18.10;58.20;;;;;;5015895;28;20966;-80
2022/01/28 11:22:51;;;;;;;6.50;3.70;;;18.10;58.30;;;;;;5014730;28;20441;-80
2022/01/28 11:25:36;;;;;;;8.60;3.70;;;18.10;58.30;;;;;;5015762;28;20499;-80
2022/01/28 11:28:11;;;;;;;7.83;3.50;;;18.10;58.20;;;;;;5016394;28;20439;-81
2022/01/28 11:30:49;;;;;;;9.70;3.60;;;18.10;58.30;;;;;;5016640;28;20451;-80
2022/01/28 11:33:18;;;;;;;7.47;3.77;;;18.10;58.50;;;;;;5014829;28;20559;-80
2022/01/28 11:36:03;;;;;;;9.10;3.60;;;18.10;58.60;;;;;;5016950;28;20429;-80
2022/01/28 11:38:44;;;;;;;8.77;3.93;;;18.10;58.40;;;;;;5016534;28;20502;-82
2022/01/28 11:41:24;;;;;;;7.10;3.57;;;18.10;58.50;;;;;;5015654;28;20440;-80
2022/01/28 11:43:53;;;;;;;9.50;3.90;;;18.10;58.50;;;;;;5016728;28;20468;-81
2022/01/28 11:46:24;;;;;;;7.50;4.00;;;18.20;58.60;;;;;;5016925;28;20535;-80
2022/01/28 11:49:25;;;;;;;9.17;3.87;;;18.30;58.70;;;;;;5017502;28;20456;-81
2022/01/28 11:51:53;;;;;;;6.70;3.30;;;18.40;58.50;;;;;;5002250;28;20812;-81
2022/01/28 11:54:25;;;;;;;9.00;3.73;;;18.50;58.50;;;;;;4997192;28;20468;-81
2022/01/28 11:57:12;;;;;;;6.03;3.77;;;18.40;58.50;;;;;;4996784;28;20489;-80
2022/01/28 11:59:40;;;;;;;9.33;3.73;;;18.40;58.20;;;;;;4997078;28;20484;-80
2022/01/28 12:02:12;;;;;;;7.50;3.43;;;18.40;58.40;;;;;;4996751;28;20883;-79
2022/01/28 12:04:41;;;;;;;8.53;4.00;;;18.50;58.40;;;;;;5005615;28;20471;-80
2022/01/28 12:07:13;;;;;;;6.20;3.47;;;18.40;58.30;;;;;;5004408;28;20491;-80
2022/01/28 12:09:41;;;;;;;7.30;3.57;;;18.40;58.40;;;;;;4999896;28;20472;-81
2022/01/28 12:12:11;;;;;;;8.47;4.10;;;18.40;58.40;;;;;;5001961;28;20449;-81
2022/01/28 12:15:08;;;;;;;9.37;4.00;;;18.40;58.50;;;;;;5013623;28;20518;-80
2022/01/28 12:17:45;;;;;;;7.87;3.70;;;18.40;58.60;;;;;;5011543;28;20476;-81
2022/01/28 12:20:38;;;;;;;9.67;3.57;;;18.40;58.70;;;;;;5007799;28;20476;-81
2022/01/28 12:23:37;;;;;;;7.87;3.57;;;18.40;58.70;;;;;;5016747;28;20463;-81
2022/01/28 12:26:06;;;;;;;8.57;3.17;;;18.40;58.80;;;;;;5013079;28;20496;-81
2022/01/28 12:28:45;;;;;;;6.37;3.47;;;18.40;58.80;;;;;;5014114;28;20428;-81
2022/01/28 12:31:15;;;;;;;8.23;4.07;;;18.50;58.90;;;;;;4993774;28;20429;-81
2022/01/28 12:33:47;;;;;;;8.90;3.70;;;18.60;59.00;;;;;;4993573;28;20473;-82
2022/01/28 12:36:16;;;;;;;4.53;3.23;;;18.70;59.00;;;;;;4996392;28;20473;-83
2022/01/28 12:38:57;;;;;;;5.07;3.20;;;18.70;58.50;;;;;;5005695;28;20428;-83
2022/01/28 12:41:25;;;;;;;8.77;3.50;;;18.90;59.00;;;;;;5014642;28;20415;-82
2022/01/28 12:43:53;;;;;;;7.17;3.60;;;19.00;58.80;;;;;;5016773;28;20445;-84
2022/01/28 12:46:21;;;;;;;11.07;3.80;;;19.20;58.80;;;;;;5015798;28;20439;-82
2022/01/28 12:48:51;;;;;;;8.10;3.67;;;19.20;58.40;;;;;;5012943;28;20502;-83
2022/01/28 12:51:21;;;;;;;5.10;3.00;;;19.30;58.30;;;;;;5008851;28;20441;-82
2022/01/28 12:53:54;;;;;;;6.77;3.57;;;19.30;58.20;;;;;;4994037;28;20503;-82
2022/01/28 12:56:33;;;;;;;9.63;4.43;;;19.40;58.10;;;;;;5004693;28;20483;-84
2022/01/28 12:59:01;;;;;;;10.13;3.80;;;19.40;58.00;;;;;;5006066;28;20424;-86
2022/01/28 13:01:29;;;;;;;6.20;3.47;;;19.50;58.00;;;;;;4998163;28;20445;-84
2022/01/28 13:04:07;;;;;;;7.10;4.00;;;19.50;58.00;;;;;;4997338;28;20504;-84
2022/01/28 13:08:24;;;;;;;11.03;4.37;;;19.60;58.00;;;;;;5013743;28;20443;-84
2022/01/28 13:09:43;;;;;;;8.57;3.37;;;19.70;58.00;;;;;;5006177;28;20465;-82
2022/01/28 13:12:11;;;;;;;8.53;3.90;;;19.70;58.00;;;;;;4993893;28;20445;-82
2022/01/28 13:14:40;;;;;;;6.50;3.57;;;19.70;57.90;;;;;;5010432;28;20484;-82
2022/01/28 13:17:08;;;;;;;10.33;3.23;;;19.70;57.80;;;;;;5004455;28;20453;-83
2022/01/28 13:19:37;;;;;;;6.23;3.43;;;19.70;58.00;;;;;;5014766;28;20566;-83
2022/01/28 13:22:06;;;;;;;5.57;3.43;;;19.70;58.00;;;;;;5015249;28;20456;-83
2022/01/28 13:24:34;;;;;;;9.37;3.73;;;19.70;58.00;;;;;;5014278;28;20464;-85
2022/01/28 13:27:03;;;;;;;9.13;4.20;;;19.70;57.80;;;;;;5015455;28;20488;-82
2022/01/28 13:29:36;;;;;;;9.20;3.80;;;19.70;58.00;;;;;;5013637;28;20472;-84
2022/01/28 13:32:06;;;;;;;8.97;3.50;;;19.70;58.00;;;;;;5017626;28;20463;-84
2022/01/28 13:34:48;;;;;;;9.73;3.80;;;19.70;57.90;;;;;;5008097;28;20496;-84
2022/01/28 13:37:37;;;;;;;7.50;3.10;;;19.60;58.00;;;;;;4996004;28;20444;-86
2022/01/28 13:40:07;;;;;;;7.93;3.50;;;19.60;58.20;;;;;;4995865;28;21030;-83
2022/01/28 13:42:35;;;;;;;12.60;4.40;;;19.50;58.10;;;;;;4998081;28;20445;-84
2022/01/28 13:45:04;;;;;;;37.67;3.77;;;19.50;58.30;;;;;;4998526;28;20453;-85
2022/01/28 13:47:49;;;;;;;8.40;3.50;;;19.40;58.20;;;;;;5006887;28;20515;-87
2022/01/28 13:50:25;;;;;;;8.80;3.00;;;19.50;58.50;;;;;;5012587;28;20466;-84
2022/01/28 13:56:12;;;;;;;6.30;3.10;;;19.60;58.70;;;;;;5014285;28;20436;-84
2022/01/28 13:58:53;;;;;;;7.30;3.30;;;19.50;58.50;;;;;;5019177;28;20444;-85